X  Close Metar Aviation Weather Data     YBCG Gold Coast Airport
Temperature
27°C Temperature
25°C Dewpoint
89% Humidity



Wind
10 KM/H
6 MPH
3 M/S
5 KTS



150°
SSE
Current Conditions

Mostly Scattered Clouds Mostly Scattered Clouds
Pressure 1010.84 (hPa) - 29.85 (inHg)
Visibility 6 (mile) - 9.7 (km)
Airport
Airport-code YBCG

Location: Gold Coast Airport
Distance: 58 (km)

Metar:
YBCG 240830Z AUTO 15005KT 9999 // SCT031 27/25 Q1011 RF00.0/000.4 DL-S/DL-SW

Time: 24-02-2024 19:30 AEDT